Time;durP1;ratioP1;P1;durP2;ratioP2;P2;SDS_P1;SDS_P2;PMS_P1;PMS_P2;Temp;Humidity;BMP_temperature;BMP_pressure;BME280_temperature;BME280_humidity;BME280_pressure;Samples;Min_cycle;Max_cycle;Signal;HPM_P1;HPM_P2
2023/06/03 00:01:34;;;;;;;6.20;2.30;;;12.50;99.90;;;;;;5119894;28;20099;-57
2023/06/03 00:04:00;;;;;;;5.57;1.80;;;12.60;99.90;;;;;;5119835;28;20059;-57
2023/06/03 00:06:25;;;;;;;4.75;1.48;;;12.50;99.90;;;;;;5120069;28;20111;-57
2023/06/03 00:08:51;;;;;;;5.80;1.55;;;12.50;99.90;;;;;;5120440;28;20048;-54
2023/06/03 00:11:17;;;;;;;6.10;1.52;;;12.50;99.90;;;;;;5119850;28;20048;-57
2023/06/03 00:13:42;;;;;;;4.93;1.75;;;12.50;99.90;;;;;;5120368;28;20044;-57
2023/06/03 00:16:08;;;;;;;4.22;1.50;;;12.50;99.90;;;;;;5119600;28;20040;-56
2023/06/03 00:18:34;;;;;;;4.47;1.55;;;12.50;99.90;;;;;;5118307;28;20044;-57
2023/06/03 00:21:01;;;;;;;6.50;1.63;;;12.40;99.90;;;;;;5119631;28;20765;-57
2023/06/03 00:23:27;;;;;;;4.22;1.30;;;12.40;99.90;;;;;;5101301;28;20047;-57
2023/06/03 00:25:53;;;;;;;4.75;1.50;;;12.40;99.90;;;;;;5120051;28;20526;-57
2023/06/03 00:28:19;;;;;;;6.05;1.70;;;12.40;99.90;;;;;;5119513;28;20085;-57
2023/06/03 00:30:45;;;;;;;4.68;1.50;;;12.40;99.90;;;;;;5119779;28;20071;-58
2023/06/03 00:33:11;;;;;;;3.63;1.23;;;12.40;99.90;;;;;;5119620;28;20036;-57
2023/06/03 00:35:37;;;;;;;5.10;1.45;;;12.40;99.90;;;;;;5119324;28;20036;-57
2023/06/03 00:38:03;;;;;;;5.28;1.58;;;12.40;99.90;;;;;;5119249;28;20043;-57
2023/06/03 00:40:29;;;;;;;4.85;1.70;;;12.50;99.90;;;;;;5119571;28;20061;-57
2023/06/03 00:42:54;;;;;;;4.40;1.25;;;12.50;99.90;;;;;;5119740;28;20043;-57
2023/06/03 00:45:20;;;;;;;3.78;1.30;;;12.40;99.90;;;;;;5119046;28;20039;-57
2023/06/03 00:47:47;;;;;;;4.25;1.50;;;12.40;99.90;;;;;;5119806;28;20040;-57
2023/06/03 00:50:14;;;;;;;5.60;1.38;;;12.40;99.90;;;;;;5118752;28;20032;-57
2023/06/03 00:52:40;;;;;;;4.97;1.33;;;12.50;99.90;;;;;;5119365;28;20039;-57
2023/06/03 00:55:06;;;;;;;4.30;1.23;;;12.40;99.90;;;;;;5118583;28;20050;-57
2023/06/03 00:57:32;;;;;;;3.92;1.13;;;12.40;99.90;;;;;;5119263;28;20043;-57
2023/06/03 00:59:58;;;;;;;6.65;1.50;;;12.30;99.90;;;;;;5119138;28;20032;-56
2023/06/03 01:02:24;;;;;;;4.00;1.30;;;12.30;99.90;;;;;;5118104;28;20055;-57
2023/06/03 01:04:51;;;;;;;3.92;1.33;;;12.30;99.90;;;;;;5117864;28;20075;-56
2023/06/03 01:07:56;;;;;;;4.72;1.40;;;12.30;99.90;;;;;;5118631;28;20055;-57
2023/06/03 01:10:40;;;;;;;5.15;1.40;;;12.20;99.90;;;;;;5119222;28;20062;-57
2023/06/03 01:13:24;;;;;;;4.55;1.60;;;12.20;99.90;;;;;;5119279;28;20047;-57
2023/06/03 01:15:54;;;;;;;5.57;2.17;;;12.10;99.90;;;;;;5118818;28;20043;-57
2023/06/03 01:18:20;;;;;;;3.63;1.23;;;12.10;99.90;;;;;;5118788;28;20050;-57
2023/06/03 01:20:48;;;;;;;4.68;1.67;;;12.10;99.90;;;;;;5118666;28;20051;-57
2023/06/03 01:23:28;;;;;;;4.70;1.20;;;12.00;99.90;;;;;;5118798;28;20072;-57
2023/06/03 01:25:58;;;;;;;4.75;1.50;;;12.00;99.90;;;;;;5119202;28;20044;-57
2023/06/03 01:28:25;;;;;;;4.63;1.27;;;12.00;99.90;;;;;;5118463;28;20036;-56
2023/06/03 01:30:51;;;;;;;4.10;1.30;;;12.00;99.90;;;;;;5118655;28;20043;-57
2023/06/03 01:33:19;;;;;;;4.78;1.05;;;12.00;99.90;;;;;;5118799;28;20043;-57
2023/06/03 01:35:46;;;;;;;5.43;1.30;;;11.90;99.90;;;;;;5116952;28;20077;-57
2023/06/03 01:38:13;;;;;;;2.75;1.10;;;12.00;99.90;;;;;;5118215;28;20502;-57
2023/06/03 01:40:39;;;;;;;4.88;1.27;;;12.00;99.90;;;;;;5118409;28;20036;-57
2023/06/03 01:43:05;;;;;;;4.32;1.60;;;11.90;99.90;;;;;;5117693;28;20100;-57
2023/06/03 01:45:31;;;;;;;3.80;1.23;;;11.80;99.90;;;;;;5118176;28;20046;-57
2023/06/03 01:47:57;;;;;;;4.13;1.40;;;11.80;99.90;;;;;;5118590;28;20032;-57
2023/06/03 01:50:23;;;;;;;3.58;1.10;;;11.80;99.90;;;;;;5118335;28;20123;-58
2023/06/03 01:52:50;;;;;;;9.13;1.50;;;11.80;99.90;;;;;;5118344;28;20040;-57
2023/06/03 01:55:16;;;;;;;3.75;1.23;;;11.80;99.90;;;;;;5118295;28;20036;-57
2023/06/03 01:57:42;;;;;;;4.00;1.38;;;11.80;99.90;;;;;;5118288;28;20061;-56
2023/06/03 02:00:11;;;;;;;5.47;1.17;;;11.70;99.90;;;;;;5118389;28;20039;-57
2023/06/03 02:02:37;;;;;;;5.20;1.52;;;11.60;99.90;;;;;;5117362;28;20744;-56
2023/06/03 02:05:03;;;;;;;5.40;1.25;;;11.70;99.90;;;;;;5118349;28;20043;-57
2023/06/03 02:07:32;;;;;;;3.92;1.38;;;11.60;99.90;;;;;;5120608;28;20061;-56
2023/06/03 02:09:59;;;;;;;4.70;1.23;;;11.60;99.90;;;;;;5121964;27;20074;-56
2023/06/03 02:12:25;;;;;;;4.57;1.48;;;11.50;99.90;;;;;;5122070;28;20104;-57
2023/06/03 02:14:53;;;;;;;4.88;1.30;;;11.50;99.90;;;;;;5122549;28;20068;-57
2023/06/03 02:17:26;;;;;;;3.90;1.30;;;11.50;99.90;;;;;;5122688;28;20213;-57
2023/06/03 02:19:55;;;;;;;6.05;1.50;;;11.50;99.90;;;;;;5122004;28;20093;-57
2023/06/03 02:22:22;;;;;;;4.13;1.35;;;11.50;99.90;;;;;;5122287;28;20067;-56
2023/06/03 02:24:49;;;;;;;5.68;1.40;;;11.50;99.90;;;;;;5122105;28;20047;-57
2023/06/03 02:27:19;;;;;;;4.63;1.58;;;11.40;99.90;;;;;;5122038;27;20057;-57
2023/06/03 02:29:50;;;;;;;6.32;1.60;;;11.40;99.90;;;;;;5121945;28;20055;-56
2023/06/03 02:32:19;;;;;;;4.40;1.50;;;11.30;99.90;;;;;;5121401;28;20065;-56
2023/06/03 02:34:46;;;;;;;4.50;1.50;;;11.40;99.90;;;;;;5122599;28;20067;-57
2023/06/03 02:37:13;;;;;;;5.82;1.27;;;11.20;99.90;;;;;;5120410;28;20047;-57
2023/06/03 02:39:38;;;;;;;5.47;1.70;;;11.30;99.90;;;;;;5121964;28;20054;-57
2023/06/03 02:42:05;;;;;;;5.25;1.70;;;11.20;99.90;;;;;;5121452;28;20039;-57
2023/06/03 02:44:30;;;;;;;5.35;1.63;;;11.20;99.90;;;;;;5121502;28;20538;-57
2023/06/03 02:46:56;;;;;;;5.07;1.55;;;11.30;99.90;;;;;;5121322;28;20103;-57
2023/06/03 02:49:22;;;;;;;4.15;1.42;;;11.10;99.90;;;;;;5121338;28;20050;-57
2023/06/03 02:51:47;;;;;;;5.30;1.50;;;11.10;99.90;;;;;;5122293;27;20444;-56
2023/06/03 02:54:13;;;;;;;4.47;1.60;;;11.00;99.90;;;;;;5121431;28;20043;-57
2023/06/03 02:56:39;;;;;;;5.60;1.50;;;10.80;99.90;;;;;;5121657;28;20088;-57
2023/06/03 02:59:05;;;;;;;4.60;1.50;;;10.90;99.90;;;;;;5119993;28;20044;-57
2023/06/03 03:01:31;;;;;;;6.03;1.42;;;10.90;99.90;;;;;;5121015;28;20054;-57
2023/06/03 03:03:57;;;;;;;6.07;2.33;;;10.70;99.90;;;;;;5120933;28;20079;-56
2023/06/03 03:06:24;;;;;;;5.50;1.65;;;10.70;99.90;;;;;;5121103;28;20066;-57
2023/06/03 03:08:50;;;;;;;6.35;1.80;;;10.70;99.90;;;;;;5121655;28;20075;-56
2023/06/03 03:11:16;;;;;;;5.38;1.70;;;10.70;99.90;;;;;;5120747;28;20071;-56
2023/06/03 03:13:43;;;;;;;8.13;2.10;;;10.70;99.90;;;;;;5121252;27;20035;-57
2023/06/03 03:16:09;;;;;;;4.45;1.60;;;10.60;99.90;;;;;;5121284;28;20139;-56
2023/06/03 03:18:36;;;;;;;7.38;1.90;;;10.70;99.90;;;;;;5120235;28;20051;-57
2023/06/03 03:21:02;;;;;;;5.65;1.70;;;10.60;99.90;;;;;;5121127;28;20036;-57
2023/06/03 03:23:29;;;;;;;4.75;1.88;;;10.60;99.90;;;;;;5120681;28;20490;-57
2023/06/03 03:25:57;;;;;;;4.63;1.65;;;10.60;99.90;;;;;;5120084;28;20461;-57
2023/06/03 03:28:23;;;;;;;6.13;1.80;;;10.60;99.90;;;;;;5120542;28;20042;-57
2023/06/03 03:30:49;;;;;;;5.18;1.65;;;10.60;99.90;;;;;;5119730;28;20051;-57
2023/06/03 03:33:17;;;;;;;6.35;1.70;;;10.50;99.90;;;;;;5121077;28;20502;-56
2023/06/03 03:35:43;;;;;;;4.93;1.73;;;10.60;99.90;;;;;;5120839;28;20089;-55
2023/06/03 03:38:10;;;;;;;4.40;1.67;;;10.60;99.90;;;;;;5120744;28;20649;-57
2023/06/03 03:40:37;;;;;;;6.35;2.00;;;10.60;99.90;;;;;;5120565;28;20042;-57
2023/06/03 03:43:03;;;;;;;4.45;1.48;;;10.60;99.90;;;;;;5120881;28;20043;-56
2023/06/03 03:45:36;;;;;;;5.30;2.20;;;10.50;99.90;;;;;;5119184;28;20112;-57
2023/06/03 03:48:09;;;;;;;4.55;1.60;;;10.50;99.90;;;;;;5120797;27;20050;-57
2023/06/03 03:50:35;;;;;;;6.50;1.60;;;10.50;99.90;;;;;;5119059;28;20507;-56
2023/06/03 03:53:04;;;;;;;5.13;1.70;;;10.60;99.90;;;;;;5120532;28;20071;-57
2023/06/03 03:55:30;;;;;;;4.72;1.60;;;10.60;99.90;;;;;;5120503;28;20039;-57
2023/06/03 03:57:56;;;;;;;6.07;1.88;;;10.60;99.90;;;;;;5120062;28;20054;-57
2023/06/03 04:00:22;;;;;;;4.32;1.58;;;10.60;99.90;;;;;;5120920;28;20047;-57
2023/06/03 04:02:51;;;;;;;4.53;1.48;;;10.60;99.90;;;;;;5119560;28;20073;-57
2023/06/03 04:05:17;;;;;;;4.95;1.70;;;10.60;99.90;;;;;;5120272;28;20047;-57
2023/06/03 04:07:46;;;;;;;8.00;2.00;;;10.60;99.90;;;;;;5118383;28;20074;-57
2023/06/03 04:10:12;;;;;;;6.15;1.85;;;10.70;99.90;;;;;;5118908;28;20109;-57
2023/06/03 04:12:38;;;;;;;6.70;1.73;;;10.70;99.90;;;;;;5119799;28;20048;-57
2023/06/03 04:15:04;;;;;;;5.00;1.90;;;10.70;99.90;;;;;;5118199;28;20060;-57
2023/06/03 04:17:30;;;;;;;5.60;1.95;;;10.80;99.90;;;;;;5120033;28;20077;-57
2023/06/03 04:20:00;;;;;;;5.78;1.65;;;10.80;99.90;;;;;;5119601;28;20047;-57
2023/06/03 04:22:26;;;;;;;4.38;1.42;;;10.90;99.90;;;;;;5120107;28;20699;-57
2023/06/03 04:25:00;;;;;;;5.85;1.98;;;10.90;99.90;;;;;;5119955;28;20035;-56
2023/06/03 04:27:26;;;;;;;5.45;1.95;;;11.00;99.90;;;;;;5119919;28;20059;-57
2023/06/03 04:29:52;;;;;;;6.38;1.80;;;11.00;99.90;;;;;;5118685;28;20043;-57
2023/06/03 04:32:17;;;;;;;4.70;1.83;;;11.00;99.90;;;;;;5117526;28;20057;-56
2023/06/03 04:34:54;;;;;;;7.30;1.90;;;11.10;99.90;;;;;;5119982;28;20036;-57
2023/06/03 04:37:20;;;;;;;5.53;1.55;;;11.20;99.90;;;;;;5119170;28;20079;-57
2023/06/03 04:39:46;;;;;;;5.05;2.05;;;11.20;99.90;;;;;;5119215;28;20040;-57
2023/06/03 04:42:12;;;;;;;6.10;1.77;;;11.30;99.90;;;;;;5116923;28;20067;-56
2023/06/03 04:44:42;;;;;;;5.68;1.80;;;11.60;99.90;;;;;;5119352;28;20444;-57
2023/06/03 04:47:11;;;;;;;4.47;1.48;;;11.50;99.90;;;;;;5119503;28;20131;-56
2023/06/03 04:49:40;;;;;;;7.25;1.85;;;11.60;99.90;;;;;;5118849;28;20051;-57
2023/06/03 04:52:10;;;;;;;6.07;1.90;;;11.70;99.90;;;;;;5119486;28;20119;-57
2023/06/03 04:54:37;;;;;;;4.72;1.35;;;11.70;99.90;;;;;;5119258;28;20040;-57
2023/06/03 04:57:03;;;;;;;5.90;1.80;;;11.80;99.90;;;;;;5119124;28;20062;-56
2023/06/03 04:59:29;;;;;;;4.80;1.70;;;11.90;99.90;;;;;;5119090;28;20043;-56
2023/06/03 05:01:55;;;;;;;4.93;1.73;;;11.90;99.90;;;;;;5118742;28;20035;-58
2023/06/03 05:04:21;;;;;;;6.05;1.83;;;11.90;99.90;;;;;;5119060;28;20059;-57
2023/06/03 05:06:48;;;;;;;5.15;1.90;;;11.90;99.90;;;;;;5118664;28;20055;-57
2023/06/03 05:09:15;;;;;;;5.45;1.50;;;11.90;99.90;;;;;;5118936;28;20047;-57
2023/06/03 05:11:42;;;;;;;4.97;1.75;;;11.90;99.90;;;;;;5118778;28;20054;-57
2023/06/03 05:14:08;;;;;;;5.28;2.20;;;12.00;99.90;;;;;;5115474;28;20050;-56
2023/06/03 05:16:37;;;;;;;5.43;1.95;;;12.10;99.90;;;;;;5115200;28;20067;-57
2023/06/03 05:19:03;;;;;;;4.57;1.70;;;12.10;99.90;;;;;;5115008;28;20051;-56
2023/06/03 05:21:28;;;;;;;8.55;1.70;;;12.30;99.90;;;;;;5115644;28;20053;-56
2023/06/03 05:23:54;;;;;;;5.65;1.70;;;12.40;99.90;;;;;;5114729;28;20048;-56
2023/06/03 05:26:20;;;;;;;4.28;1.50;;;12.50;99.90;;;;;;5115229;28;20084;-57
2023/06/03 05:28:48;;;;;;;5.82;1.75;;;12.60;99.90;;;;;;5115228;28;20043;-57
2023/06/03 05:31:14;;;;;;;4.15;1.45;;;12.70;99.90;;;;;;5113264;28;20060;-57
2023/06/03 05:33:41;;;;;;;8.02;1.60;;;12.80;99.90;;;;;;5113511;28;20517;-58
2023/06/03 05:36:08;;;;;;;4.72;1.55;;;12.90;99.90;;;;;;5114869;28;20119;-57
2023/06/03 05:38:33;;;;;;;6.40;1.98;;;13.00;99.90;;;;;;5114886;28;20074;-57
2023/06/03 05:41:00;;;;;;;5.20;1.50;;;13.20;99.90;;;;;;5114349;28;20062;-57
2023/06/03 05:43:25;;;;;;;7.65;1.50;;;13.20;99.90;;;;;;5115194;28;20035;-57
2023/06/03 05:45:51;;;;;;;6.32;1.65;;;13.20;99.90;;;;;;5114593;28;20043;-57
2023/06/03 05:48:17;;;;;;;4.90;1.48;;;13.20;99.90;;;;;;5114850;28;20159;-57
2023/06/03 05:50:54;;;;;;;4.65;1.50;;;13.40;99.90;;;;;;5114487;28;20082;-56
2023/06/03 05:53:21;;;;;;;7.18;1.88;;;13.40;99.90;;;;;;5114932;28;20040;-57
2023/06/03 05:55:48;;;;;;;4.25;1.55;;;13.50;99.90;;;;;;5115134;28;20115;-57
2023/06/03 05:58:14;;;;;;;5.63;1.75;;;13.60;99.90;;;;;;5114302;28;20035;-57
2023/06/03 06:00:40;;;;;;;5.95;2.17;;;13.70;99.90;;;;;;5113043;28;20108;-57
2023/06/03 06:03:06;;;;;;;4.10;1.58;;;13.80;99.90;;;;;;5114280;28;20108;-57
2023/06/03 06:05:31;;;;;;;5.68;1.50;;;13.90;99.90;;;;;;5114735;28;20044;-57
2023/06/03 06:07:57;;;;;;;4.90;1.60;;;13.90;99.90;;;;;;5114478;28;20043;-57
2023/06/03 06:10:23;;;;;;;7.10;1.83;;;14.10;99.90;;;;;;5114513;28;20051;-57
2023/06/03 06:12:48;;;;;;;4.30;1.58;;;14.20;99.90;;;;;;5114737;28;20047;-56
2023/06/03 06:15:14;;;;;;;4.50;1.45;;;14.30;99.90;;;;;;5113954;28;20044;-57
2023/06/03 06:17:42;;;;;;;4.68;1.83;;;14.30;99.90;;;;;;5114855;28;20073;-57
2023/06/03 06:20:09;;;;;;;4.78;1.35;;;14.50;99.90;;;;;;5114038;28;20101;-56
2023/06/03 06:22:35;;;;;;;4.00;1.40;;;14.60;99.90;;;;;;5114149;28;20036;-57
2023/06/03 06:25:06;;;;;;;5.05;1.60;;;14.80;99.90;;;;;;5112704;28;20057;-57
2023/06/03 06:27:32;;;;;;;5.70;1.98;;;14.90;99.90;;;;;;5114286;28;20562;-57
2023/06/03 06:29:58;;;;;;;4.80;1.33;;;14.80;99.90;;;;;;5114731;28;20103;-57
2023/06/03 06:32:26;;;;;;;7.18;1.45;;;15.00;99.90;;;;;;5112536;28;20721;-57
2023/06/03 06:34:52;;;;;;;4.20;1.20;;;15.00;99.90;;;;;;5114744;28;20039;-57
2023/06/03 06:37:19;;;;;;;4.78;1.00;;;15.30;99.90;;;;;;5114126;28;20071;-57
2023/06/03 06:39:47;;;;;;;3.97;1.20;;;15.40;99.90;;;;;;5114651;28;20054;-56
2023/06/03 06:42:25;;;;;;;4.47;1.20;;;15.60;99.90;;;;;;5114436;28;20052;-58
2023/06/03 06:44:51;;;;;;;5.25;1.40;;;15.70;99.90;;;;;;5112964;28;20154;-57
2023/06/03 06:47:22;;;;;;;4.82;1.40;;;15.90;99.90;;;;;;5113512;28;20052;-57
2023/06/03 06:49:49;;;;;;;4.82;1.38;;;16.10;99.90;;;;;;5113413;28;20051;-57
2023/06/03 06:52:15;;;;;;;4.50;1.25;;;16.10;99.90;;;;;;5114920;28;20038;-57
2023/06/03 06:54:41;;;;;;;4.38;1.30;;;16.30;99.90;;;;;;5117605;27;20048;-57
2023/06/03 06:57:07;;;;;;;6.63;1.45;;;16.40;99.90;;;;;;5117896;28;20027;-56
2023/06/03 06:59:33;;;;;;;4.75;1.30;;;16.50;99.90;;;;;;5117459;28;20054;-58
2023/06/03 07:01:59;;;;;;;4.10;1.00;;;16.70;99.90;;;;;;5116639;28;20056;-58
2023/06/03 07:04:25;;;;;;;4.03;1.10;;;16.80;99.90;;;;;;5117792;28;20499;-57
2023/06/03 07:06:51;;;;;;;5.70;1.10;;;16.60;97.20;;;;;;5117658;28;20049;-58
2023/06/03 07:09:16;;;;;;;4.22;1.00;;;16.70;97.80;;;;;;5117785;28;20071;-57
2023/06/03 07:11:46;;;;;;;5.10;1.15;;;16.60;98.40;;;;;;5117656;28;20040;-57
2023/06/03 07:14:13;;;;;;;4.82;1.10;;;16.40;95.80;;;;;;5117096;28;20032;-57
2023/06/03 07:16:40;;;;;;;3.33;1.10;;;16.20;96.70;;;;;;5117567;28;20123;-57
2023/06/03 07:19:06;;;;;;;5.05;1.27;;;16.10;97.50;;;;;;5117170;28;20048;-57
2023/06/03 07:21:33;;;;;;;3.33;1.10;;;16.00;98.00;;;;;;5117567;28;20108;-57
2023/06/03 07:24:00;;;;;;;3.90;1.05;;;16.00;98.00;;;;;;5116674;28;20039;-56
2023/06/03 07:26:32;;;;;;;4.10;1.15;;;15.90;97.20;;;;;;5115925;28;20053;-57
2023/06/03 07:28:58;;;;;;;4.93;1.67;;;15.80;96.60;;;;;;5117591;28;20043;-57
2023/06/03 07:31:24;;;;;;;4.30;1.05;;;15.80;98.10;;;;;;5115667;28;20103;-57
2023/06/03 07:33:53;;;;;;;3.55;1.00;;;15.80;98.30;;;;;;5117133;28;20063;-57
2023/06/03 07:36:20;;;;;;;3.90;1.00;;;15.70;97.90;;;;;;5115732;28;20047;-57
2023/06/03 07:39:02;;;;;;;4.80;1.20;;;15.70;98.80;;;;;;5117128;28;20046;-58
2023/06/03 07:41:46;;;;;;;3.20;0.90;;;15.70;97.80;;;;;;5116926;28;20040;-54
2023/06/03 07:44:14;;;;;;;5.05;1.10;;;15.70;98.50;;;;;;5115647;28;20069;-57
2023/06/03 07:46:45;;;;;;;4.70;1.00;;;15.80;99.00;;;;;;5116717;28;20094;-57
2023/06/03 07:49:13;;;;;;;4.70;1.20;;;15.90;98.60;;;;;;5116123;28;20503;-57
2023/06/03 07:51:50;;;;;;;4.60;1.25;;;16.00;98.70;;;;;;5115261;28;20043;-57
2023/06/03 07:54:17;;;;;;;4.53;1.25;;;16.20;98.70;;;;;;5112786;28;20065;-57
2023/06/03 07:56:44;;;;;;;5.60;1.10;;;16.40;98.90;;;;;;5115621;28;20156;-57
2023/06/03 07:59:11;;;;;;;3.53;1.00;;;16.70;98.10;;;;;;5115530;28;20043;-57
2023/06/03 08:01:37;;;;;;;3.28;1.10;;;16.80;98.00;;;;;;5115989;28;20051;-56
2023/06/03 08:04:08;;;;;;;4.07;1.08;;;16.90;97.70;;;;;;5117713;28;20048;-56
2023/06/03 08:06:36;;;;;;;4.35;1.10;;;17.10;96.40;;;;;;5119895;28;20035;-57
2023/06/03 08:09:02;;;;;;;4.47;1.17;;;17.20;97.20;;;;;;5120327;28;20082;-57
2023/06/03 08:11:27;;;;;;;5.25;1.10;;;17.30;96.90;;;;;;5119950;28;20044;-57
2023/06/03 08:13:55;;;;;;;3.00;1.00;;;17.50;95.90;;;;;;5119377;28;20046;-56
2023/06/03 08:16:21;;;;;;;4.85;1.30;;;17.50;95.70;;;;;;5119745;28;20055;-58
2023/06/03 08:18:50;;;;;;;3.90;1.25;;;17.60;95.00;;;;;;5119739;28;20038;-57
2023/06/03 08:21:17;;;;;;;3.20;1.00;;;17.80;94.70;;;;;;5119867;28;20096;-57
2023/06/03 08:23:43;;;;;;;3.55;1.10;;;17.70;94.90;;;;;;5117718;28;20063;-57
2023/06/03 08:26:10;;;;;;;5.20;1.10;;;17.90;94.80;;;;;;5120113;28;20122;-58
2023/06/03 08:28:40;;;;;;;4.25;1.23;;;17.80;92.60;;;;;;5118195;28;20073;-58
2023/06/03 08:31:06;;;;;;;4.35;0.90;;;17.90;92.80;;;;;;5119242;28;20040;-57
2023/06/03 08:33:31;;;;;;;3.47;1.00;;;18.00;93.30;;;;;;5119292;28;20071;-57
2023/06/03 08:35:57;;;;;;;3.45;0.98;;;18.00;93.10;;;;;;5119347;28;20043;-57
2023/06/03 08:38:23;;;;;;;4.00;1.08;;;18.10;92.80;;;;;;5119179;28;20048;-55
2023/06/03 08:40:50;;;;;;;4.38;1.23;;;18.20;93.40;;;;;;5118966;28;20482;-57
2023/06/03 08:43:16;;;;;;;2.67;1.05;;;18.20;91.60;;;;;;5119754;28;20054;-57
2023/06/03 08:46:03;;;;;;;5.60;1.35;;;18.30;92.00;;;;;;5118995;28;20491;-56
2023/06/03 08:48:51;;;;;;;4.70;1.10;;;18.30;91.50;;;;;;5119215;28;20043;-56
2023/06/03 08:51:21;;;;;;;3.45;1.10;;;18.40;91.00;;;;;;5119299;28;20103;-57
2023/06/03 08:53:49;;;;;;;5.00;1.30;;;18.40;91.30;;;;;;5117548;28;20472;-56
2023/06/03 08:56:20;;;;;;;6.22;1.20;;;18.40;90.90;;;;;;5119270;28;20043;-57
2023/06/03 08:58:54;;;;;;;4.30;0.90;;;18.50;91.50;;;;;;5118676;28;20116;-56
2023/06/03 09:01:32;;;;;;;4.03;1.25;;;18.50;90.30;;;;;;5117218;28;20044;-58
2023/06/03 09:04:02;;;;;;;4.07;0.90;;;18.50;90.40;;;;;;5116568;28;20665;-57
2023/06/03 09:06:27;;;;;;;2.28;0.70;;;18.60;88.50;;;;;;5118326;28;20048;-58
2023/06/03 09:08:53;;;;;;;4.65;0.98;;;18.70;88.10;;;;;;5119228;28;20055;-58
2023/06/03 09:11:22;;;;;;;7.20;1.10;;;18.70;89.10;;;;;;5118678;28;20051;-57
2023/06/03 09:13:50;;;;;;;3.05;1.10;;;18.80;89.50;;;;;;5117203;28;20103;-57
2023/06/03 09:16:17;;;;;;;3.67;0.90;;;18.90;89.70;;;;;;5118056;28;20111;-58
2023/06/03 09:18:44;;;;;;;5.70;1.45;;;18.90;89.80;;;;;;5118652;28;20052;-58
2023/06/03 09:21:10;;;;;;;6.15;1.20;;;19.00;89.40;;;;;;5118596;28;20046;-58
2023/06/03 09:23:39;;;;;;;4.57;1.15;;;19.10;88.20;;;;;;5118106;28;20039;-57
2023/06/03 09:26:05;;;;;;;5.20;1.15;;;19.00;88.70;;;;;;5118893;28;20048;-58
2023/06/03 09:28:32;;;;;;;3.65;0.90;;;19.10;87.20;;;;;;5117606;28;20047;-57
2023/06/03 09:30:57;;;;;;;5.20;1.17;;;19.20;85.20;;;;;;5117491;28;20024;-58
2023/06/03 09:33:23;;;;;;;5.82;1.15;;;19.30;87.50;;;;;;5118231;28;20058;-58
2023/06/03 09:36:13;;;;;;;2.38;0.80;;;19.30;86.80;;;;;;5118306;28;20066;-57
2023/06/03 09:39:05;;;;;;;4.82;1.20;;;19.30;82.10;;;;;;5118338;28;20078;-57
2023/06/03 09:41:31;;;;;;;4.13;1.00;;;19.30;82.50;;;;;;5116484;28;20087;-57
2023/06/03 09:43:57;;;;;;;4.32;1.00;;;19.30;84.60;;;;;;5115960;28;20044;-57
2023/06/03 09:46:25;;;;;;;3.05;0.85;;;19.40;85.10;;;;;;5116300;28;20046;-57
2023/06/03 09:48:51;;;;;;;4.68;1.05;;;19.40;83.70;;;;;;5117750;28;20040;-56
2023/06/03 09:51:17;;;;;;;3.63;1.00;;;19.30;84.20;;;;;;5118225;28;20099;-56
2023/06/03 09:53:43;;;;;;;4.50;1.10;;;19.40;83.20;;;;;;5117330;28;20035;-55
2023/06/03 09:56:26;;;;;;;2.45;1.00;;;19.40;82.10;;;;;;5118262;28;20105;-56
2023/06/03 09:59:15;;;;;;;3.78;1.20;;;19.50;82.50;;;;;;5117899;28;20052;-57
2023/06/03 10:01:48;;;;;;;4.15;1.13;;;19.60;81.80;;;;;;5117203;28;20039;-57
2023/06/03 10:04:20;;;;;;;3.05;1.00;;;19.50;82.30;;;;;;5118173;28;20086;-57
2023/06/03 10:07:06;;;;;;;3.30;1.05;;;19.60;82.30;;;;;;5117522;28;20058;-57
2023/06/03 10:09:32;;;;;;;3.88;1.13;;;19.70;83.50;;;;;;5117128;28;20059;-58
2023/06/03 10:11:57;;;;;;;3.00;0.90;;;19.90;83.70;;;;;;5117680;28;20040;-57
2023/06/03 10:14:27;;;;;;;7.03;1.25;;;20.00;82.60;;;;;;5117930;28;20032;-57
2023/06/03 10:17:10;;;;;;;4.32;1.00;;;19.80;81.40;;;;;;5117845;28;20448;-58
2023/06/03 10:19:37;;;;;;;3.83;1.00;;;19.80;81.40;;;;;;5117809;28;20048;-57
2023/06/03 10:22:05;;;;;;;3.67;1.00;;;19.80;80.80;;;;;;5118075;28;20092;-57
2023/06/03 10:24:33;;;;;;;3.47;1.00;;;20.00;82.90;;;;;;5117909;28;20065;-58
2023/06/03 10:26:59;;;;;;;4.18;1.10;;;20.00;82.10;;;;;;5116081;28;20069;-57
2023/06/03 10:29:25;;;;;;;3.00;0.85;;;20.00;82.20;;;;;;5121814;28;20064;-58
2023/06/03 10:31:54;;;;;;;2.85;0.98;;;20.00;78.20;;;;;;5115871;28;20043;-57
2023/06/03 10:34:20;;;;;;;4.78;1.27;;;20.00;80.00;;;;;;5115212;27;20083;-57
2023/06/03 10:36:56;;;;;;;3.80;0.82;;;20.00;79.60;;;;;;5122321;27;20638;-58
2023/06/03 10:39:24;;;;;;;3.95;0.90;;;20.10;77.70;;;;;;5125815;27;20060;-57
2023/06/03 10:41:53;;;;;;;4.47;1.23;;;20.20;81.00;;;;;;5127095;27;20049;-57
2023/06/03 10:44:19;;;;;;;2.65;0.80;;;20.30;77.30;;;;;;5123795;27;20047;-58
2023/06/03 10:46:52;;;;;;;4.53;1.20;;;20.20;79.70;;;;;;5127402;27;20087;-58
2023/06/03 10:49:20;;;;;;;3.42;0.90;;;20.30;77.10;;;;;;5123021;27;20054;-57
2023/06/03 10:52:01;;;;;;;3.17;1.00;;;20.20;77.60;;;;;;5128147;27;20119;-58
2023/06/03 10:55:08;;;;;;;6.05;1.10;;;20.30;76.80;;;;;;5127098;27;20194;-57
2023/06/03 10:57:42;;;;;;;4.22;1.10;;;20.20;77.70;;;;;;5104819;27;20043;-58
2023/06/03 11:00:09;;;;;;;3.17;0.88;;;20.40;77.00;;;;;;5128896;27;20042;-58
2023/06/03 11:03:03;;;;;;;4.65;0.98;;;20.30;76.30;;;;;;5124607;27;20059;-57
2023/06/03 11:05:29;;;;;;;7.00;0.93;;;20.40;76.50;;;;;;5125849;27;20538;-57
2023/06/03 11:07:54;;;;;;;5.90;1.25;;;20.50;78.70;;;;;;5126633;27;20049;-58
2023/06/03 11:10:39;;;;;;;3.15;1.00;;;20.50;77.70;;;;;;5126140;27;20046;-58
2023/06/03 11:13:06;;;;;;;4.25;1.10;;;20.40;76.50;;;;;;5126586;27;20090;-59
2023/06/03 11:16:10;;;;;;;8.35;1.38;;;20.50;75.40;;;;;;5126223;27;20055;-58
2023/06/03 11:18:36;;;;;;;2.85;0.90;;;20.60;75.80;;;;;;5084932;28;20047;-59
2023/06/03 11:21:01;;;;;;;4.55;1.10;;;20.60;77.00;;;;;;5083295;28;20056;-58
2023/06/03 11:23:43;;;;;;;3.55;1.05;;;20.70;76.30;;;;;;5091162;27;20102;-57
2023/06/03 11:26:32;;;;;;;4.53;0.90;;;20.60;74.10;;;;;;5127550;27;20051;-58
2023/06/03 11:28:58;;;;;;;3.10;0.95;;;20.60;74.30;;;;;;5123686;27;20177;-57
2023/06/03 11:31:25;;;;;;;5.40;1.05;;;20.60;76.20;;;;;;5127014;27;20510;-57
2023/06/03 11:34:29;;;;;;;6.25;1.60;;;20.80;73.70;;;;;;5123473;27;20105;-57
2023/06/03 11:36:56;;;;;;;4.07;1.10;;;20.80;72.50;;;;;;5116949;28;20051;-57
2023/06/03 11:39:23;;;;;;;4.00;1.10;;;20.90;75.50;;;;;;5117150;28;20687;-57
2023/06/03 11:42:01;;;;;;;3.03;1.00;;;21.00;74.00;;;;;;5115680;28;20051;-57
2023/06/03 11:44:27;;;;;;;3.58;0.93;;;21.00;73.90;;;;;;5118058;28;20051;-57
2023/06/03 11:46:53;;;;;;;4.57;1.00;;;21.10;75.00;;;;;;5119437;27;20046;-55
2023/06/03 11:49:23;;;;;;;3.67;0.90;;;21.00;74.00;;;;;;5118558;28;20090;-56
2023/06/03 11:51:54;;;;;;;4.82;1.00;;;20.90;74.70;;;;;;5120714;28;20043;-57
2023/06/03 11:54:23;;;;;;;4.53;1.10;;;21.10;75.10;;;;;;5120237;28;20526;-57
2023/06/03 11:56:50;;;;;;;3.00;0.88;;;21.10;75.40;;;;;;5120336;28;20048;-56
2023/06/03 11:59:21;;;;;;;3.33;1.10;;;21.20;75.90;;;;;;5120320;28;20097;-57
2023/06/03 12:02:07;;;;;;;4.65;1.00;;;21.20;75.00;;;;;;5119814;28;20044;-56
2023/06/03 12:04:34;;;;;;;5.13;1.10;;;21.30;74.50;;;;;;5120771;28;20066;-56
2023/06/03 12:07:01;;;;;;;3.15;0.90;;;21.30;75.60;;;;;;5120209;28;20032;-57
2023/06/03 12:09:29;;;;;;;4.40;0.98;;;21.40;76.90;;;;;;5120177;28;20123;-57
2023/06/03 12:11:56;;;;;;;5.25;1.00;;;21.40;74.80;;;;;;5120095;28;20062;-57
2023/06/03 12:14:26;;;;;;;3.25;1.20;;;21.30;73.60;;;;;;5120260;28;20050;-57
2023/06/03 12:16:54;;;;;;;3.63;1.00;;;21.30;72.70;;;;;;5118730;28;20044;-57
2023/06/03 12:19:20;;;;;;;3.65;1.00;;;21.30;73.90;;;;;;5119266;28;20673;-57
2023/06/03 12:21:58;;;;;;;4.55;1.13;;;21.30;74.60;;;;;;5119835;28;20044;-57
2023/06/03 12:24:28;;;;;;;5.07;1.25;;;21.30;74.20;;;;;;5119909;28;20051;-57
2023/06/03 12:26:54;;;;;;;2.45;1.00;;;21.40;74.40;;;;;;5119821;28;20047;-57
2023/06/03 12:29:20;;;;;;;3.88;1.30;;;21.40;74.70;;;;;;5119459;28;20043;-57
2023/06/03 12:32:00;;;;;;;3.67;1.08;;;21.40;73.90;;;;;;5119184;28;20040;-57
2023/06/03 12:34:45;;;;;;;4.57;1.10;;;21.30;70.30;;;;;;5120061;28;20059;-57
2023/06/03 12:37:12;;;;;;;4.07;1.10;;;21.40;72.90;;;;;;5119675;28;20051;-56
2023/06/03 12:39:46;;;;;;;5.57;1.27;;;21.50;74.60;;;;;;5119358;28;20047;-57
2023/06/03 12:42:12;;;;;;;5.53;1.13;;;21.50;74.20;;;;;;5119466;28;20055;-57
2023/06/03 12:44:45;;;;;;;5.88;1.13;;;21.20;74.60;;;;;;5119310;28;20039;-57
2023/06/03 12:47:13;;;;;;;5.05;1.15;;;21.30;76.20;;;;;;5118537;28;20047;-57
2023/06/03 12:49:38;;;;;;;4.25;1.10;;;21.10;76.10;;;;;;5118941;28;20036;-57
2023/06/03 12:52:20;;;;;;;4.22;1.00;;;21.30;77.10;;;;;;5119185;28;20117;-57
2023/06/03 12:54:53;;;;;;;4.55;1.00;;;21.30;74.80;;;;;;5117700;28;20043;-57
2023/06/03 12:57:20;;;;;;;3.50;1.08;;;21.10;75.90;;;;;;5119005;28;20044;-57